Time;durP1;ratioP1;P1;durP2;ratioP2;P2;SDS_P1;SDS_P2;PMS_P1;PMS_P2;Temp;Humidity;BMP_temperature;BMP_pressure;BME280_temperature;BME280_humidity;BME280_pressure;Samples;Min_cycle;Max_cycle;Signal;HPM_P1;HPM_P2
2024/01/25 00:01:29;;;;;;;;;;;17.00;52.60;;;;;;5079605;28;42936;-78
2024/01/25 00:03:55;;;;;;;;;;;17.00;52.50;;;;;;5078794;28;43272;-78
2024/01/25 00:06:21;;;;;;;;;;;17.10;52.80;;;;;;5084145;28;42898;-78
2024/01/25 00:08:46;;;;;;;;;;;17.00;52.60;;;;;;5083144;28;43692;-78
2024/01/25 00:11:12;;;;;;;;;;;17.10;52.70;;;;;;5070505;28;43015;-78
2024/01/25 00:13:38;;;;;;;;;;;17.10;52.90;;;;;;5064650;28;43442;-79
2024/01/25 00:16:04;;;;;;;;;;;17.10;52.80;;;;;;5070041;27;43025;-78
2024/01/25 00:18:29;;;;;;;;;;;17.10;52.80;;;;;;5075121;28;43376;-78
2024/01/25 00:20:55;;;;;;;;;;;17.10;52.90;;;;;;5067680;28;42964;-81
2024/01/25 00:23:20;;;;;;;;;;;17.10;52.90;;;;;;5066284;28;43001;-78
2024/01/25 00:25:46;;;;;;;;;;;17.10;53.00;;;;;;5066757;27;42937;-78
2024/01/25 00:28:12;;;;;;;;;;;17.10;53.00;;;;;;5065550;28;43419;-78
2024/01/25 00:30:38;;;;;;;;;;;17.10;53.10;;;;;;5065355;28;43158;-78
2024/01/25 00:33:04;;;;;;;;;;;17.10;53.10;;;;;;5070485;28;43264;-78
2024/01/25 00:35:30;;;;;;;;;;;17.10;53.30;;;;;;5074890;27;42928;-78
2024/01/25 00:37:55;;;;;;;;;;;17.10;53.20;;;;;;5076840;28;43207;-78
2024/01/25 00:40:21;;;;;;;;;;;17.10;53.30;;;;;;5080968;28;42924;-80
2024/01/25 00:42:52;;;;;;;;;;;17.10;53.20;;;;;;5084817;27;43541;-80
2024/01/25 00:45:18;;;;;;;;;;;17.10;53.20;;;;;;5079467;28;43509;-79
2024/01/25 00:47:44;;;;;;;;;;;17.10;53.30;;;;;;5081482;28;42885;-80
2024/01/25 00:50:10;;;;;;;;;;;17.10;53.30;;;;;;5084432;27;42973;-79
2024/01/25 00:52:36;;;;;;;;;;;17.10;53.40;;;;;;5083833;28;42925;-79
2024/01/25 00:55:01;;;;;;;;;;;17.10;53.40;;;;;;5082668;27;42931;-79
2024/01/25 00:57:27;;;;;;;;;;;17.10;53.30;;;;;;5074151;27;45662;-79
2024/01/25 00:59:53;;;;;;;;;;;17.10;53.30;;;;;;5082273;28;42999;-79
2024/01/25 01:02:21;;;;;;;;;;;17.10;53.30;;;;;;5085050;28;42828;-80
2024/01/25 01:04:47;;;;;;;;;;;17.10;53.40;;;;;;5084027;27;42763;-80
2024/01/25 01:07:12;;;;;;;;;;;17.10;53.30;;;;;;5074111;27;42941;-78
2024/01/25 01:09:38;;;;;;;;;;;17.10;53.30;;;;;;5085277;28;43134;-81
2024/01/25 01:12:03;;;;;;;;;;;17.10;53.30;;;;;;5093772;28;42818;-80
2024/01/25 01:14:29;;;;;;;;;;;17.10;53.30;;;;;;5084618;28;43142;-81
2024/01/25 01:16:55;;;;;;;;;;;17.10;53.30;;;;;;5084357;28;43242;-81
2024/01/25 01:19:20;;;;;;;;;;;17.10;53.40;;;;;;5083512;27;42815;-79
2024/01/25 01:21:46;;;;;;;;;;;17.10;53.40;;;;;;5083851;28;42854;-81
2024/01/25 01:24:11;;;;;;;;;;;17.10;53.40;;;;;;5083617;28;42955;-80
2024/01/25 01:26:37;;;;;;;;;;;17.20;53.50;;;;;;5084050;28;43025;-80
2024/01/25 01:29:03;;;;;;;;;;;17.10;53.60;;;;;;5079902;28;43138;-79
2024/01/25 01:31:28;;;;;;;;;;;17.10;53.50;;;;;;5083771;28;43197;-78
2024/01/25 01:33:54;;;;;;;;;;;17.10;53.50;;;;;;5084101;28;43093;-80
2024/01/25 01:36:20;;;;;;;;;;;17.10;53.50;;;;;;5084565;28;43825;-78
2024/01/25 01:38:45;;;;;;;;;;;17.10;53.60;;;;;;5084176;27;43008;-78
2024/01/25 01:41:13;;;;;;;;;;;17.10;54.10;;;;;;5084234;28;43974;-78
2024/01/25 01:43:39;;;;;;;;;;;17.10;53.50;;;;;;5082613;28;42921;-80
2024/01/25 01:46:12;;;;;;;;;;;17.10;53.50;;;;;;5084918;27;43655;-79
2024/01/25 01:48:41;;;;;;;;;;;17.10;53.50;;;;;;5083376;28;42966;-81
2024/01/25 01:51:07;;;;;;;;;;;17.10;53.50;;;;;;5086112;27;43238;-78
2024/01/25 01:53:33;;;;;;;;;;;17.10;53.60;;;;;;5084721;27;42887;-79
2024/01/25 01:55:58;;;;;;;;;;;17.10;53.60;;;;;;5087308;28;43173;-78
2024/01/25 01:58:25;;;;;;;;;;;17.10;53.70;;;;;;5087632;27;43035;-78
2024/01/25 02:00:52;;;;;;;;;;;17.10;53.70;;;;;;5087762;28;43015;-78
2024/01/25 02:03:17;;;;;;;;;;;17.10;53.60;;;;;;5087223;27;43299;-80
2024/01/25 02:05:43;;;;;;;;;;;17.10;53.70;;;;;;5086481;28;43004;-80
2024/01/25 02:08:09;;;;;;;;;;;17.20;53.90;;;;;;5086918;28;43015;-81
2024/01/25 02:10:34;;;;;;;;;;;17.20;53.90;;;;;;5087818;28;43691;-80
2024/01/25 02:12:59;;;;;;;;;;;17.10;53.80;;;;;;5087588;28;42972;-82
2024/01/25 02:15:25;;;;;;;;;;;17.20;53.90;;;;;;5087363;28;43212;-80
2024/01/25 02:17:50;;;;;;;;;;;17.20;54.10;;;;;;5085783;28;43024;-79
2024/01/25 02:20:17;;;;;;;;;;;17.20;54.10;;;;;;5086192;28;43007;-81
2024/01/25 02:22:43;;;;;;;;;;;17.20;54.20;;;;;;5086681;27;43056;-81
2024/01/25 02:25:08;;;;;;;;;;;17.20;54.30;;;;;;5086249;28;44052;-81
2024/01/25 02:27:38;;;;;;;;;;;17.10;54.30;;;;;;5086653;28;42862;-81
2024/01/25 02:30:05;;;;;;;;;;;17.20;54.50;;;;;;5086564;28;43766;-82
2024/01/25 02:32:30;;;;;;;;;;;17.20;54.60;;;;;;5087246;27;42976;-82
2024/01/25 02:34:56;;;;;;;;;;;17.20;54.70;;;;;;5085301;28;44476;-82
2024/01/25 02:37:21;;;;;;;;;;;17.20;54.90;;;;;;5087347;28;43303;-81
2024/01/25 02:39:47;;;;;;;;;;;17.20;55.00;;;;;;5086924;28;43150;-83
2024/01/25 02:42:14;;;;;;;;;;;17.20;54.90;;;;;;5085068;28;43023;-81
2024/01/25 02:44:39;;;;;;;;;;;17.20;54.90;;;;;;5086857;28;43023;-81
2024/01/25 02:47:05;;;;;;;;;;;17.20;55.10;;;;;;5087301;28;42962;-82
2024/01/25 02:49:30;;;;;;;;;;;17.20;55.20;;;;;;5084823;28;43486;-81
2024/01/25 02:51:56;;;;;;;;;;;17.20;55.40;;;;;;5085442;28;43017;-82
2024/01/25 02:54:21;;;;;;;;;;;17.20;55.60;;;;;;5086904;28;42976;-81
2024/01/25 02:56:47;;;;;;;;;;;17.20;55.60;;;;;;5086412;28;42818;-82
2024/01/25 02:59:12;;;;;;;;;;;17.20;55.60;;;;;;5085481;27;43149;-82
2024/01/25 03:01:39;;;;;;;;;;;17.20;55.80;;;;;;5086433;28;42889;-81
2024/01/25 03:04:05;;;;;;;;;;;17.20;55.90;;;;;;5086242;27;44074;-81
2024/01/25 03:06:31;;;;;;;;;;;17.20;56.10;;;;;;5086438;27;42901;-81
2024/01/25 03:08:56;;;;;;;;;;;17.20;55.80;;;;;;5084756;28;43015;-82
2024/01/25 03:11:22;;;;;;;;;;;17.20;56.10;;;;;;5084711;28;43056;-82
2024/01/25 03:13:47;;;;;;;;;;;17.20;56.10;;;;;;5085934;28;44637;-82
2024/01/25 03:16:13;;;;;;;;;;;17.20;56.30;;;;;;5086097;28;42848;-81
2024/01/25 03:18:38;;;;;;;;;;;17.20;56.40;;;;;;5086354;28;42908;-81
2024/01/25 03:21:04;;;;;;;;;;;17.20;56.30;;;;;;5084962;28;43111;-81
2024/01/25 03:23:29;;;;;;;;;;;17.30;56.40;;;;;;5085249;28;43558;-80
2024/01/25 03:25:55;;;;;;;;;;;17.20;56.60;;;;;;5087145;27;42996;-79
2024/01/25 03:28:20;;;;;;;;;;;17.20;56.20;;;;;;5096983;28;43771;-80
2024/01/25 03:30:46;;;;;;;;;;;17.20;56.60;;;;;;5086651;28;42913;-82
2024/01/25 03:33:11;;;;;;;;;;;17.20;56.70;;;;;;5086558;28;42969;-80
2024/01/25 03:35:37;;;;;;;;;;;17.20;56.80;;;;;;5082016;27;42961;-81
2024/01/25 03:38:02;;;;;;;;;;;17.20;56.80;;;;;;5084091;28;45440;-79
2024/01/25 03:40:28;;;;;;;;;;;17.20;56.80;;;;;;5085488;28;43786;-82
2024/01/25 03:42:53;;;;;;;;;;;17.20;56.90;;;;;;5085393;28;43653;-79
2024/01/25 03:45:19;;;;;;;;;;;17.20;56.80;;;;;;5085647;28;42955;-80
2024/01/25 03:47:44;;;;;;;;;;;17.20;56.90;;;;;;5083925;28;44439;-79
2024/01/25 03:50:10;;;;;;;;;;;17.20;56.90;;;;;;5086974;28;43842;-76
2024/01/25 03:52:35;;;;;;;;;;;17.20;56.80;;;;;;5086818;27;43503;-82
2024/01/25 03:55:01;;;;;;;;;;;17.20;57.00;;;;;;5085700;28;43146;-81
2024/01/25 03:57:27;;;;;;;;;;;17.20;57.00;;;;;;5085796;28;42891;-81
2024/01/25 03:59:52;;;;;;;;;;;17.20;56.90;;;;;;5083661;28;43027;-80
2024/01/25 04:02:18;;;;;;;;;;;17.20;57.10;;;;;;5085637;27;42975;-82
2024/01/25 04:04:43;;;;;;;;;;;17.20;57.00;;;;;;5085456;27;42902;-81
2024/01/25 04:07:09;;;;;;;;;;;17.20;56.80;;;;;;5085773;28;43756;-81
2024/01/25 04:09:34;;;;;;;;;;;17.20;57.10;;;;;;5084276;27;42985;-81
2024/01/25 04:12:00;;;;;;;;;;;17.20;57.00;;;;;;5085808;28;42996;-81
2024/01/25 04:14:25;;;;;;;;;;;17.20;57.10;;;;;;5084873;28;42917;-81
2024/01/25 04:16:51;;;;;;;;;;;17.20;57.20;;;;;;5084426;28;43094;-81
2024/01/25 04:19:16;;;;;;;;;;;17.20;57.20;;;;;;5084257;28;42980;-82
2024/01/25 04:21:42;;;;;;;;;;;17.20;57.40;;;;;;5085118;28;43063;-81
2024/01/25 04:24:07;;;;;;;;;;;17.20;57.40;;;;;;5100395;27;42936;-81
2024/01/25 04:26:33;;;;;;;;;;;17.20;57.90;;;;;;5085293;28;43559;-82
2024/01/25 04:28:58;;;;;;;;;;;17.20;57.40;;;;;;5084640;28;42896;-80
2024/01/25 04:31:24;;;;;;;;;;;17.20;57.50;;;;;;5084792;28;42959;-81
2024/01/25 04:33:49;;;;;;;;;;;17.10;57.50;;;;;;5100150;27;43028;-82
2024/01/25 04:36:15;;;;;;;;;;;17.20;57.60;;;;;;5084262;28;42908;-81
2024/01/25 04:38:40;;;;;;;;;;;17.20;57.50;;;;;;5084945;28;43279;-82
2024/01/25 04:41:06;;;;;;;;;;;17.10;57.60;;;;;;5085552;28;43288;-81
2024/01/25 04:43:36;;;;;;;;;;;17.10;57.60;;;;;;5085103;28;44239;-81
2024/01/25 04:46:02;;;;;;;;;;;17.10;57.60;;;;;;5084490;27;43900;-82
2024/01/25 04:48:28;;;;;;;;;;;17.10;57.70;;;;;;5084964;28;43016;-81
2024/01/25 04:50:53;;;;;;;;;;;17.10;57.80;;;;;;5083106;28;44558;-81
2024/01/25 04:53:19;;;;;;;;;;;17.10;57.90;;;;;;5083891;28;43537;-81
2024/01/25 04:55:44;;;;;;;;;;;17.10;57.90;;;;;;5084834;28;42928;-81
2024/01/25 04:58:11;;;;;;;;;;;17.10;57.90;;;;;;5078678;28;42942;-80
2024/01/25 05:00:38;;;;;;;;;;;17.10;57.90;;;;;;5084815;28;43550;-82
2024/01/25 05:03:03;;;;;;;;;;;17.10;58.00;;;;;;5084153;27;43122;-81
2024/01/25 05:05:29;;;;;;;;;;;17.10;57.90;;;;;;5084359;27;43553;-82
2024/01/25 05:07:54;;;;;;;;;;;18.40;58.70;;;;;;5084181;27;43046;-81
2024/01/25 05:10:20;;;;;;;;;;;17.10;58.00;;;;;;5084889;28;43756;-82
2024/01/25 05:12:46;;;;;;;;;;;17.10;58.00;;;;;;5084898;27;42999;-81
2024/01/25 05:15:11;;;;;;;;;;;17.10;58.00;;;;;;5084672;27;42951;-80
2024/01/25 05:17:37;;;;;;;;;;;17.10;58.00;;;;;;5102636;27;42991;-81
2024/01/25 05:20:03;;;;;;;;;;;17.10;57.90;;;;;;5080462;28;44175;-81
2024/01/25 05:22:28;;;;;;;;;;;17.10;57.90;;;;;;5080121;27;43004;-80
2024/01/25 05:24:54;;;;;;;;;;;17.10;57.80;;;;;;5088560;28;42864;-80
2024/01/25 05:27:19;;;;;;;;;;;17.10;57.90;;;;;;5090686;28;43026;-80
2024/01/25 05:29:45;;;;;;;;;;;17.10;58.00;;;;;;5090356;28;43067;-81
2024/01/25 05:32:10;;;;;;;;;;;17.10;57.90;;;;;;5087179;27;43105;-80
2024/01/25 05:34:36;;;;;;;;;;;17.10;58.00;;;;;;5088471;28;43756;-81
2024/01/25 05:37:01;;;;;;;;;;;17.10;58.00;;;;;;5087794;27;43271;-81
2024/01/25 05:39:27;;;;;;;;;;;17.10;57.90;;;;;;5089387;28;42850;-80
2024/01/25 05:41:52;;;;;;;;;;;17.00;58.00;;;;;;5089761;28;42854;-80
2024/01/25 05:44:18;;;;;;;;;;;17.10;57.90;;;;;;5100362;28;43345;-81
2024/01/25 05:46:43;;;;;;;;;;;17.10;57.90;;;;;;5091064;28;43537;-80
2024/01/25 05:49:09;;;;;;;;;;;17.10;57.80;;;;;;5085757;28;43465;-80
2024/01/25 05:51:35;;;;;;;;;;;17.10;57.90;;;;;;5087271;28;43018;-81
2024/01/25 05:54:01;;;;;;;;;;;17.00;57.90;;;;;;5087510;27;43027;-79
2024/01/25 05:56:26;;;;;;;;;;;17.10;57.90;;;;;;5087109;28;43004;-80
2024/01/25 05:58:52;;;;;;;;;;;17.00;57.90;;;;;;5086635;28;43127;-79
2024/01/25 06:01:18;;;;;;;;;;;17.10;57.90;;;;;;5079197;27;43108;-90
2024/01/25 06:03:44;;;;;;;;;;;17.10;57.90;;;;;;5089965;28;42891;-81
2024/01/25 06:06:10;;;;;;;;;;;17.10;59.60;;;;;;5087945;28;43018;-80
2024/01/25 06:08:35;;;;;;;;;;;17.10;58.10;;;;;;5085316;28;43087;-79
2024/01/25 06:11:01;;;;;;;;;;;17.10;58.10;;;;;;5089423;28;42850;-80
2024/01/25 06:13:26;;;;;;;;;;;17.00;58.00;;;;;;5083544;27;43232;-80
2024/01/25 06:15:52;;;;;;;;;;;17.00;58.10;;;;;;5104309;27;43026;-83
2024/01/25 06:18:17;;;;;;;;;;;17.00;58.00;;;;;;5088769;28;43411;-78
2024/01/25 06:20:44;;;;;;;;;;;17.10;58.10;;;;;;5084509;28;42952;-83
2024/01/25 06:23:09;;;;;;;;;;;17.00;58.00;;;;;;5084780;27;44198;-77
2024/01/25 06:25:35;;;;;;;;;;;17.00;58.10;;;;;;5075460;27;42999;-89
2024/01/25 06:28:03;;;;;;;;;;;17.00;58.00;;;;;;5085803;27;44464;-83
2024/01/25 06:30:29;;;;;;;;;;;17.00;58.00;;;;;;5089821;27;42981;-78
2024/01/25 06:32:54;;;;;;;;;;;17.00;58.00;;;;;;5082907;27;43152;-80
2024/01/25 06:35:20;;;;;;;;;;;17.00;58.10;;;;;;5085084;27;42979;-77
2024/01/25 06:37:45;;;;;;;;;;;17.00;58.10;;;;;;5084589;28;43951;-90
2024/01/25 06:40:11;;;;;;;;;;;17.00;58.10;;;;;;5084074;27;43486;-92
2024/01/25 06:42:36;;;;;;;;;;;17.00;58.10;;;;;;5085013;27;43217;-91
2024/01/25 06:45:02;;;;;;;;;;;17.10;58.20;;;;;;5082024;28;43147;-79
2024/01/25 06:47:28;;;;;;;;;;;17.00;58.10;;;;;;5081464;27;43507;-91
2024/01/25 06:49:53;;;;;;;;;;;17.00;58.30;;;;;;5082461;28;43151;-77
2024/01/25 06:52:19;;;;;;;;;;;17.00;58.30;;;;;;5086167;28;43492;-93
2024/01/25 06:54:44;;;;;;;;;;;17.00;58.30;;;;;;5085908;27;42966;-79
2024/01/25 06:57:10;;;;;;;;;;;17.00;58.20;;;;;;5088444;27;42779;-81
2024/01/25 06:59:35;;;;;;;;;;;17.00;58.30;;;;;;5085390;27;43081;-84
2024/01/25 07:02:02;;;;;;;;;;;17.00;58.30;;;;;;5085348;27;43659;-82
2024/01/25 07:04:28;;;;;;;;;;;17.00;58.20;;;;;;5084120;28;43178;-84
2024/01/25 07:06:54;;;;;;;;;;;17.00;58.20;;;;;;5084484;27;42989;-79
2024/01/25 07:09:20;;;;;;;;;;;17.00;58.20;;;;;;5081706;28;42977;-84
2024/01/25 07:11:45;;;;;;;;;;;17.00;58.20;;;;;;5085667;27;42782;-89
2024/01/25 07:14:11;;;;;;;;;;;17.00;58.20;;;;;;5085617;28;42917;-85
2024/01/25 07:16:36;;;;;;;;;;;17.00;58.40;;;;;;5085341;28;43750;-85
2024/01/25 07:19:02;;;;;;;;;;;17.00;58.30;;;;;;5085746;27;42996;-78
2024/01/25 07:21:28;;;;;;;;;;;17.00;58.20;;;;;;5083087;27;44378;-80
2024/01/25 07:23:53;;;;;;;;;;;17.00;58.20;;;;;;5085149;27;42989;-81
2024/01/25 07:26:19;;;;;;;;;;;17.00;58.30;;;;;;5082677;28;43686;-81
2024/01/25 07:28:46;;;;;;;;;;;17.00;58.30;;;;;;5072474;27;42981;-85
2024/01/25 07:31:11;;;;;;;;;;;17.00;58.50;;;;;;5079593;28;43082;-79
2024/01/25 07:33:37;;;;;;;;;;;17.00;58.30;;;;;;5081149;27;43306;-80
2024/01/25 07:36:02;;;;;;;;;;;17.00;58.20;;;;;;5086690;27;43846;-79
2024/01/25 07:38:28;;;;;;;;;;;17.00;58.70;;;;;;5084236;27;43050;-78
2024/01/25 07:40:55;;;;;;;;;;;17.00;58.10;;;;;;5078844;27;42891;-90
2024/01/25 07:43:21;;;;;;;;;;;17.00;58.10;;;;;;5076394;27;43080;-81
2024/01/25 07:45:46;;;;;;;;;;;17.00;58.10;;;;;;5079474;27;43712;-88
2024/01/25 07:48:12;;;;;;;;;;;17.10;59.50;;;;;;5100590;27;43011;-81
2024/01/25 07:50:37;;;;;;;;;;;17.00;57.50;;;;;;5083850;28;43789;-89
2024/01/25 07:53:03;;;;;;;;;;;17.00;58.00;;;;;;5083579;28;43309;-90
2024/01/25 07:55:29;;;;;;;;;;;16.10;58.30;;;;;;5085285;27;44113;-86
2024/01/25 07:57:55;;;;;;;;;;;17.00;57.60;;;;;;5085096;27;43086;-90
2024/01/25 08:00:20;;;;;;;;;;;17.00;57.60;;;;;;5085756;27;43733;-81
2024/01/25 08:02:46;;;;;;;;;;;17.00;58.00;;;;;;5081436;28;43074;-91
2024/01/25 08:05:12;;;;;;;;;;;17.00;58.00;;;;;;5081217;27;44144;-87
2024/01/25 08:07:37;;;;;;;;;;;16.90;59.00;;;;;;5079911;27;43047;-82
2024/01/25 08:10:04;;;;;;;;;;;17.00;57.50;;;;;;5082325;27;43881;-85
2024/01/25 08:12:29;;;;;;;;;;;17.10;58.10;;;;;;5081928;28;42893;-82
2024/01/25 08:14:55;;;;;;;;;;;17.20;58.30;;;;;;5083707;27;42994;-80
2024/01/25 08:17:21;;;;;;;;;;;17.00;58.00;;;;;;5080474;27;43112;-81
2024/01/25 08:19:46;;;;;;;;;;;17.20;58.80;;;;;;5072575;27;42924;-85
2024/01/25 08:22:12;;;;;;;;;;;17.00;57.90;;;;;;5081323;28;42870;-79
2024/01/25 08:24:41;;;;;;;;;;;17.00;58.40;;;;;;5083261;27;43929;-85
2024/01/25 08:27:09;;;;;;;;;;;16.90;57.70;;;;;;5084773;27;42924;-84
2024/01/25 08:29:37;;;;;;;;;;;17.00;57.40;;;;;;5083897;28;43497;-86
2024/01/25 08:32:03;;;;;;;;;;;17.00;57.40;;;;;;5084859;27;42948;-83
2024/01/25 08:34:28;;;;;;;;;;;17.00;57.90;;;;;;5085873;27;43273;-87
2024/01/25 08:36:54;;;;;;;;;;;17.00;57.90;;;;;;5085355;28;43927;-81
2024/01/25 08:39:20;;;;;;;;;;;17.00;57.90;;;;;;5085253;28;43147;-84
2024/01/25 08:41:46;;;;;;;;;;;17.00;59.20;;;;;;5084860;28;43288;-79
2024/01/25 08:44:12;;;;;;;;;;;17.00;58.00;;;;;;5085005;27;42967;-79
2024/01/25 08:46:38;;;;;;;;;;;17.00;58.00;;;;;;5085177;28;42861;-86
2024/01/25 08:49:12;;;;;;;;;;;17.10;58.00;;;;;;5083166;28;43866;-88
2024/01/25 08:51:40;;;;;;;;;;;16.70;58.10;;;;;;5085019;27;42953;-87
2024/01/25 08:54:06;;;;;;;;;;;17.00;57.90;;;;;;5085828;28;43164;-88
2024/01/25 08:56:32;;;;;;;;;;;16.40;57.40;;;;;;5080047;27;42954;-82
2024/01/25 08:58:57;;;;;;;;;;;17.00;58.10;;;;;;5085227;28;42948;-84
2024/01/25 09:01:23;;;;;;;;;;;16.90;57.30;;;;;;5084917;28;43007;-79
2024/01/25 09:03:48;;;;;;;;;;;17.00;58.00;;;;;;5074236;27;45832;-81
2024/01/25 09:06:15;;;;;;;;;;;17.10;58.40;;;;;;5096410;27;43037;-81
2024/01/25 09:08:40;;;;;;;;;;;17.00;57.90;;;;;;5085330;27;44235;-84
2024/01/25 09:11:06;;;;;;;;;;;17.10;58.70;;;;;;5079297;28;43992;-78
2024/01/25 09:13:32;;;;;;;;;;;17.00;58.10;;;;;;5082214;27;42906;-77
2024/01/25 09:15:57;;;;;;;;;;;17.00;58.20;;;;;;5083384;27;42976;-79
2024/01/25 09:18:23;;;;;;;;;;;17.10;57.60;;;;;;5079051;27;43419;-79
2024/01/25 09:20:49;;;;;;;;;;;17.10;57.10;;;;;;5081051;27;43020;-79
2024/01/25 09:23:17;;;;;;;;;;;17.00;57.20;;;;;;5075583;28;42993;-76
2024/01/25 09:25:45;;;;;;;;;;;17.00;55.90;;;;;;5080026;27;42873;-77
2024/01/25 09:28:11;;;;;;;;;;;17.00;56.20;;;;;;5079101;27;44631;-76
2024/01/25 09:30:40;;;;;;;;;;;17.00;56.20;;;;;;5079123;27;42980;-78
2024/01/25 09:33:06;;;;;;;;;;;17.00;55.90;;;;;;5083182;27;43066;-79
2024/01/25 09:35:32;;;;;;;;;;;17.00;55.80;;;;;;5082465;28;43099;-76
2024/01/25 09:37:57;;;;;;;;;;;17.00;55.60;;;;;;5080159;28;43208;-78
2024/01/25 09:40:23;;;;;;;;;;;17.00;55.40;;;;;;5082825;27;43003;-78
2024/01/25 09:42:48;;;;;;;;;;;17.10;55.40;;;;;;5083692;28;43858;-77
2024/01/25 09:45:18;;;;;;;;;;;17.00;55.40;;;;;;5083629;27;42983;-75
2024/01/25 09:47:47;;;;;;;;;;;17.10;55.70;;;;;;5081638;27;43488;-78
2024/01/25 09:50:14;;;;;;;;;;;17.10;55.80;;;;;;5083228;27;42982;-77
2024/01/25 09:52:39;;;;;;;;;;;17.00;55.80;;;;;;5082985;27;42889;-79
2024/01/25 09:55:13;;;;;;;;;;;17.00;55.90;;;;;;5083774;28;43060;-76
2024/01/25 09:57:41;;;;;;;;;;;17.00;55.90;;;;;;5081698;28;42945;-78
2024/01/25 10:00:11;;;;;;;;;;;17.10;56.00;;;;;;5074816;28;43063;-75
2024/01/25 10:02:37;;;;;;;;;;;17.10;56.00;;;;;;5083080;27;43074;-78
2024/01/25 10:05:03;;;;;;;;;;;17.10;56.00;;;;;;5083321;27;43211;-76
2024/01/25 10:07:35;;;;;;;;;;;17.10;55.90;;;;;;5082137;27;43143;-77
2024/01/25 10:10:00;;;;;;;;;;;17.20;55.90;;;;;;5086804;28;42940;-78
2024/01/25 10:12:26;;;;;;;;;;;17.20;55.90;;;;;;5086447;27;42997;-79
2024/01/25 10:14:51;;;;;;;;;;;17.20;55.90;;;;;;5086521;27;43043;-79
2024/01/25 10:17:17;;;;;;;;;;;17.20;55.90;;;;;;5086291;27;43335;-79
2024/01/25 10:19:43;;;;;;;;;;;17.20;55.80;;;;;;5086423;27;43006;-79
2024/01/25 10:22:12;;;;;;;;;;;17.20;56.10;;;;;;5090151;28;45384;-75
2024/01/25 10:24:38;;;;;;;;;;;17.30;55.80;;;;;;5088722;28;42776;-79
2024/01/25 10:27:04;;;;;;;;;;;17.30;56.00;;;;;;5084911;27;42915;-79
2024/01/25 10:29:29;;;;;;;;;;;17.30;55.80;;;;;;5086657;28;42977;-79
2024/01/25 10:31:55;;;;;;;;;;;17.30;55.80;;;;;;5086201;28;43059;-77
2024/01/25 10:34:22;;;;;;;;;;;17.30;55.80;;;;;;5086185;27;42970;-77
2024/01/25 10:36:49;;;;;;;;;;;17.30;55.80;;;;;;5083004;27;42981;-77
2024/01/25 10:39:15;;;;;;;;;;;17.30;55.80;;;;;;5086577;27;42964;-78
2024/01/25 10:41:41;;;;;;;;;;;17.30;55.80;;;;;;5086013;27;43014;-78
2024/01/25 10:44:07;;;;;;;;;;;17.30;55.80;;;;;;5086206;28;43019;-77
2024/01/25 10:46:32;;;;;;;;;;;17.30;55.90;;;;;;5083388;27;43042;-78
2024/01/25 10:49:01;;;;;;;;;;;17.30;55.90;;;;;;5085813;27;43020;-79
2024/01/25 10:51:27;;;;;;;;;;;17.30;55.80;;;;;;5085531;28;42974;-75
2024/01/25 10:53:53;;;;;;;;;;;17.30;55.90;;;;;;5084874;27;42945;-76
2024/01/25 10:56:18;;;;;;;;;;;17.30;55.80;;;;;;5085945;28;43617;-75
2024/01/25 10:58:45;;;;;;;;;;;17.30;55.90;;;;;;5086145;28;43099;-77
2024/01/25 11:01:10;;;;;;;;;;;17.30;55.80;;;;;;5085296;27;44319;-78
2024/01/25 11:03:36;;;;;;;;;;;17.30;55.90;;;;;;5085915;28;43065;-75
2024/01/25 11:06:09;;;;;;;;;;;17.30;55.90;;;;;;5079689;28;43724;-76
2024/01/25 11:08:37;;;;;;;;;;;17.40;55.90;;;;;;5082960;28;42894;-78
2024/01/25 11:11:03;;;;;;;;;;;17.30;55.90;;;;;;5080127;27;42999;-75
2024/01/25 11:13:29;;;;;;;;;;;17.40;56.00;;;;;;5082532;28;42983;-75
2024/01/25 11:15:55;;;;;;;;;;;17.40;56.00;;;;;;5080737;28;42817;-77
2024/01/25 11:18:24;;;;;;;;;;;17.40;56.00;;;;;;5073072;28;43360;-76
2024/01/25 11:20:50;;;;;;;;;;;17.40;56.00;;;;;;5085145;27;43003;-75
2024/01/25 11:23:16;;;;;;;;;;;17.40;56.00;;;;;;5078275;28;42997;-78
2024/01/25 11:25:44;;;;;;;;;;;17.40;56.00;;;;;;5084938;27;42990;-77
2024/01/25 11:28:09;;;;;;;;;;;17.40;56.00;;;;;;5079159;27;42944;-77
2024/01/25 11:30:36;;;;;;;;;;;17.40;56.10;;;;;;5084485;27;43320;-76
2024/01/25 11:33:05;;;;;;;;;;;17.40;56.10;;;;;;5099986;27;43000;-75
2024/01/25 11:35:30;;;;;;;;;;;17.40;56.00;;;;;;5084932;27;44361;-75
2024/01/25 11:37:56;;;;;;;;;;;17.40;56.00;;;;;;5081169;28;42959;-75
2024/01/25 11:40:22;;;;;;;;;;;17.40;56.00;;;;;;5080106;27;43352;-75
2024/01/25 11:42:48;;;;;;;;;;;17.40;56.10;;;;;;5085360;28;42932;-78
2024/01/25 11:45:14;;;;;;;;;;;17.40;56.10;;;;;;5085504;27;43228;-75
2024/01/25 11:47:40;;;;;;;;;;;17.40;56.10;;;;;;5083419;27;43250;-76
2024/01/25 11:50:07;;;;;;;;;;;17.40;56.10;;;;;;5084071;27;43337;-75
2024/01/25 11:52:33;;;;;;;;;;;17.50;56.10;;;;;;5085505;27;42845;-78
2024/01/25 11:55:09;;;;;;;;;;;17.40;56.10;;;;;;5085523;27;42952;-79
2024/01/25 11:57:37;;;;;;;;;;;17.40;56.00;;;;;;5085390;27;43020;-77
2024/01/25 12:00:04;;;;;;;;;;;17.50;56.10;;;;;;5077714;28;43474;-78
2024/01/25 12:02:31;;;;;;;;;;;17.40;56.10;;;;;;5085149;27;42937;-79
2024/01/25 12:04:57;;;;;;;;;;;17.40;56.20;;;;;;5078832;27;42997;-81
2024/01/25 12:07:22;;;;;;;;;;;17.40;56.20;;;;;;5083290;27;43005;-81
2024/01/25 12:10:17;;;;;;;;;;;17.40;56.40;;;;;;5084001;27;44409;-82
2024/01/25 12:12:43;;;;;;;;;;;17.50;56.30;;;;;;5066711;27;42953;-81
2024/01/25 12:15:08;;;;;;;;;;;17.50;56.30;;;;;;5082680;27;42906;-82
2024/01/25 12:17:38;;;;;;;;;;;17.50;56.70;;;;;;5084577;27;43133;-83
2024/01/25 12:20:08;;;;;;;;;;;17.50;56.20;;;;;;5083031;27;43175;-81
2024/01/25 12:22:33;;;;;;;;;;;17.50;56.10;;;;;;5082480;27;43138;-82
2024/01/25 12:24:59;;;;;;;;;;;17.50;56.10;;;;;;5083451;28;43468;-83
2024/01/25 12:27:25;;;;;;;;;;;17.50;56.20;;;;;;5083113;27;42955;-81
2024/01/25 12:29:53;;;;;;;;;;;17.50;56.20;;;;;;5082874;27;43104;-80
2024/01/25 12:32:19;;;;;;;;;;;17.50;56.10;;;;;;5082681;27;42898;-82
2024/01/25 12:35:00;;;;;;;;;;;18.20;56.80;;;;;;5077319;28;45536;-83
2024/01/25 12:37:26;;;;;;;;;;;17.50;56.10;;;;;;5081501;27;43060;-81
2024/01/25 12:39:52;;;;;;;;;;;17.50;55.50;;;;;;5082430;27;43765;-81
2024/01/25 12:42:18;;;;;;;;;;;17.50;56.30;;;;;;5083077;27;42867;-83
2024/01/25 12:44:45;;;;;;;;;;;17.60;56.40;;;;;;5083266;28;43067;-76
2024/01/25 12:47:12;;;;;;;;;;;17.60;56.60;;;;;;5089645;27;43074;-78
2024/01/25 12:49:39;;;;;;;;;;;17.50;56.20;;;;;;5083970;27;43162;-77
2024/01/25 12:52:05;;;;;;;;;;;17.50;56.10;;;;;;5082427;27;42988;-79
2024/01/25 12:54:30;;;;;;;;;;;17.50;55.60;;;;;;5079826;27;44286;-76
2024/01/25 12:56:56;;;;;;;;;;;17.50;56.10;;;;;;5083043;27;43058;-75
2024/01/25 12:59:22;;;;;;;;;;;17.60;56.10;;;;;;5080125;27;43816;-81
2024/01/25 13:01:48;;;;;;;;;;;21.30;58.80;;;;;;5083327;27;42970;-81
2024/01/25 13:04:14;;;;;;;;;;;17.50;55.50;;;;;;5083174;27;43968;-79
2024/01/25 13:06:39;;;;;;;;;;;17.50;56.90;;;;;;5076324;27;44378;-79
2024/01/25 13:09:05;;;;;;;;;;;17.60;56.10;;;;;;5073924;28;43844;-77
2024/01/25 13:11:31;;;;;;;;;;;17.60;56.10;;;;;;5073054;27;43172;-75
2024/01/25 13:13:56;;;;;;;;;;;17.60;56.20;;;;;;5078250;27;42956;-78
2024/01/25 13:16:22;;;;;;;;;;;17.60;56.00;;;;;;5083390;28;43004;-78
2024/01/25 13:18:48;;;;;;;;;;;18.10;57.60;;;;;;5083780;27;43715;-79
2024/01/25 13:21:13;;;;;;;;;;;17.60;57.50;;;;;;5084238;27;42807;-78
2024/01/25 13:23:39;;;;;;;;;;;17.60;55.60;;;;;;5084627;27;43049;-80
2024/01/25 13:26:04;;;;;;;;;;;17.60;56.00;;;;;;5084121;27;42953;-78
2024/01/25 13:28:30;;;;;;;;;;;17.60;56.00;;;;;;5084098;27;42922;-79
2024/01/25 13:30:57;;;;;;;;;;;21.70;59.30;;;;;;5084468;27;43115;-78
2024/01/25 13:33:22;;;;;;;;;;;17.70;56.20;;;;;;5084814;27;42845;-78
2024/01/25 13:35:48;;;;;;;;;;;17.70;56.00;;;;;;5084124;27;43047;-78
2024/01/25 13:38:16;;;;;;;;;;;17.70;55.90;;;;;;5084057;28;42958;-78
2024/01/25 13:40:41;;;;;;;;;;;17.70;55.90;;;;;;5083905;27;43025;-79
2024/01/25 13:43:07;;;;;;;;;;;17.70;55.90;;;;;;5086832;27;42966;-77
2024/01/25 13:45:32;;;;;;;;;;;17.70;55.90;;;;;;5087764;28;43092;-77
2024/01/25 13:47:58;;;;;;;;;;;17.60;55.80;;;;;;5087514;28;42956;-78
2024/01/25 13:50:23;;;;;;;;;;;17.70;55.80;;;;;;5087895;27;43065;-78
2024/01/25 13:52:49;;;;;;;;;;;17.70;55.90;;;;;;5087893;28;43930;-78
2024/01/25 13:55:14;;;;;;;;;;;17.70;55.80;;;;;;5087785;27;42945;-78
2024/01/25 13:57:40;;;;;;;;;;;17.70;55.80;;;;;;5087939;27;43371;-79
2024/01/25 14:00:06;;;;;;;;;;;17.70;55.80;;;;;;5087815;27;42982;-79
2024/01/25 14:02:32;;;;;;;;;;;17.70;55.80;;;;;;5087865;27;42981;-77
2024/01/25 14:04:57;;;;;;;;;;;17.70;55.80;;;;;;5087066;27;42962;-78
2024/01/25 14:07:23;;;;;;;;;;;17.70;55.80;;;;;;5087709;28;42998;-79
2024/01/25 14:09:49;;;;;;;;;;;17.70;55.80;;;;;;5086770;27;42971;-78